sensor_id;sensor_type;location;lat;lon;timestamp;P1;durP1;ratioP1;P2;durP2;ratioP2
22201;SDS011;11266;51.522;6.302;2024-02-21T00:00:08;24.05;;;10.45;;
22201;SDS011;11266;51.522;6.302;2024-02-21T00:00:56;28.10;;;10.40;;
22201;SDS011;11266;51.522;6.302;2024-02-21T00:01:41;51.00;;;12.38;;
22201;SDS011;11266;51.522;6.302;2024-02-21T00:02:27;33.88;;;11.40;;
22201;SDS011;11266;51.522;6.302;2024-02-21T00:03:12;39.70;;;12.02;;
22201;SDS011;11266;51.522;6.302;2024-02-21T00:03:58;35.85;;;11.13;;
22201;SDS011;11266;51.522;6.302;2024-02-21T00:04:43;27.92;;;10.95;;
22201;SDS011;11266;51.522;6.302;2024-02-21T00:05:29;34.00;;;10.85;;
22201;SDS011;11266;51.522;6.302;2024-02-21T00:06:15;24.08;;;9.85;;
22201;SDS011;11266;51.522;6.302;2024-02-21T00:07:01;42.83;;;11.50;;
22201;SDS011;11266;51.522;6.302;2024-02-21T00:07:46;34.70;;;10.10;;
22201;SDS011;11266;51.522;6.302;2024-02-21T00:08:32;58.47;;;14.18;;
22201;SDS011;11266;51.522;6.302;2024-02-21T00:09:17;28.40;;;10.25;;
22201;SDS011;11266;51.522;6.302;2024-02-21T00:10:04;28.67;;;10.77;;
22201;SDS011;11266;51.522;6.302;2024-02-21T00:10:50;52.20;;;14.52;;
22201;SDS011;11266;51.522;6.302;2024-02-21T00:11:36;39.60;;;12.93;;
22201;SDS011;11266;51.522;6.302;2024-02-21T00:12:22;35.00;;;10.70;;
22201;SDS011;11266;51.522;6.302;2024-02-21T00:13:07;46.65;;;11.65;;
22201;SDS011;11266;51.522;6.302;2024-02-21T00:13:53;40.58;;;10.85;;
22201;SDS011;11266;51.522;6.302;2024-02-21T00:14:39;28.85;;;10.65;;
22201;SDS011;11266;51.522;6.302;2024-02-21T00:15:25;54.85;;;11.93;;
22201;SDS011;11266;51.522;6.302;2024-02-21T00:16:11;49.65;;;10.60;;
22201;SDS011;11266;51.522;6.302;2024-02-21T00:16:58;41.55;;;11.95;;
22201;SDS011;11266;51.522;6.302;2024-02-21T00:17:44;32.90;;;10.90;;
22201;SDS011;11266;51.522;6.302;2024-02-21T00:18:29;26.45;;;10.18;;
22201;SDS011;11266;51.522;6.302;2024-02-21T00:19:15;27.42;;;10.80;;
22201;SDS011;11266;51.522;6.302;2024-02-21T00:20:00;29.85;;;10.13;;
22201;SDS011;11266;51.522;6.302;2024-02-21T00:20:46;30.30;;;11.07;;
22201;SDS011;11266;51.522;6.302;2024-02-21T00:21:32;27.75;;;9.82;;
22201;SDS011;11266;51.522;6.302;2024-02-21T00:22:17;33.92;;;10.82;;
22201;SDS011;11266;51.522;6.302;2024-02-21T00:23:03;29.20;;;10.13;;
22201;SDS011;11266;51.522;6.302;2024-02-21T00:23:48;31.95;;;10.45;;
22201;SDS011;11266;51.522;6.302;2024-02-21T00:24:35;29.00;;;10.40;;
22201;SDS011;11266;51.522;6.302;2024-02-21T00:25:21;25.60;;;9.48;;
22201;SDS011;11266;51.522;6.302;2024-02-21T00:26:07;27.23;;;10.25;;
22201;SDS011;11266;51.522;6.302;2024-02-21T00:26:53;31.88;;;10.57;;
22201;SDS011;11266;51.522;6.302;2024-02-21T00:27:39;37.05;;;10.27;;
22201;SDS011;11266;51.522;6.302;2024-02-21T00:28:25;24.30;;;10.10;;
22201;SDS011;11266;51.522;6.302;2024-02-21T00:29:10;26.73;;;10.00;;
22201;SDS011;11266;51.522;6.302;2024-02-21T00:29:56;25.15;;;9.70;;
22201;SDS011;11266;51.522;6.302;2024-02-21T00:30:41;34.58;;;10.98;;
22201;SDS011;11266;51.522;6.302;2024-02-21T00:31:27;29.88;;;10.93;;
22201;SDS011;11266;51.522;6.302;2024-02-21T00:32:12;28.23;;;11.18;;
22201;SDS011;11266;51.522;6.302;2024-02-21T00:32:58;25.23;;;9.75;;
22201;SDS011;11266;51.522;6.302;2024-02-21T00:33:43;25.08;;;10.18;;
22201;SDS011;11266;51.522;6.302;2024-02-21T00:34:29;30.33;;;11.10;;
22201;SDS011;11266;51.522;6.302;2024-02-21T00:35:15;29.42;;;10.05;;
22201;SDS011;11266;51.522;6.302;2024-02-21T00:36:00;34.83;;;11.05;;
22201;SDS011;11266;51.522;6.302;2024-02-21T00:36:46;38.00;;;10.82;;
22201;SDS011;11266;51.522;6.302;2024-02-21T00:37:31;39.58;;;11.18;;
22201;SDS011;11266;51.522;6.302;2024-02-21T00:38:17;42.25;;;11.05;;
22201;SDS011;11266;51.522;6.302;2024-02-21T00:39:02;39.33;;;10.85;;
22201;SDS011;11266;51.522;6.302;2024-02-21T00:39:49;42.55;;;10.90;;
22201;SDS011;11266;51.522;6.302;2024-02-21T00:40:35;33.25;;;11.63;;
22201;SDS011;11266;51.522;6.302;2024-02-21T00:41:20;36.60;;;10.25;;
22201;SDS011;11266;51.522;6.302;2024-02-21T00:42:06;41.75;;;11.65;;
22201;SDS011;11266;51.522;6.302;2024-02-21T00:42:52;42.28;;;11.50;;
22201;SDS011;11266;51.522;6.302;2024-02-21T00:43:37;30.90;;;10.10;;
22201;SDS011;11266;51.522;6.302;2024-02-21T00:44:23;27.92;;;10.80;;
22201;SDS011;11266;51.522;6.302;2024-02-21T00:45:09;34.95;;;11.13;;
22201;SDS011;11266;51.522;6.302;2024-02-21T00:45:54;35.00;;;10.48;;
22201;SDS011;11266;51.522;6.302;2024-02-21T00:46:40;20.60;;;9.15;;
22201;SDS011;11266;51.522;6.302;2024-02-21T00:47:26;49.00;;;12.13;;
22201;SDS011;11266;51.522;6.302;2024-02-21T00:48:11;27.08;;;9.63;;
22201;SDS011;11266;51.522;6.302;2024-02-21T00:48:57;20.15;;;8.93;;
22201;SDS011;11266;51.522;6.302;2024-02-21T00:49:43;30.50;;;9.98;;
22201;SDS011;11266;51.522;6.302;2024-02-21T00:50:28;24.85;;;9.43;;
22201;SDS011;11266;51.522;6.302;2024-02-21T00:51:14;35.45;;;9.52;;
22201;SDS011;11266;51.522;6.302;2024-02-21T00:52:00;30.35;;;9.98;;
22201;SDS011;11266;51.522;6.302;2024-02-21T00:52:45;33.47;;;9.82;;
22201;SDS011;11266;51.522;6.302;2024-02-21T00:53:31;28.42;;;10.30;;
22201;SDS011;11266;51.522;6.302;2024-02-21T00:54:16;50.22;;;10.90;;
22201;SDS011;11266;51.522;6.302;2024-02-21T00:55:03;32.17;;;11.40;;
22201;SDS011;11266;51.522;6.302;2024-02-21T00:55:49;31.67;;;9.85;;
22201;SDS011;11266;51.522;6.302;2024-02-21T00:56:35;34.42;;;9.82;;
22201;SDS011;11266;51.522;6.302;2024-02-21T00:57:20;29.67;;;9.68;;
22201;SDS011;11266;51.522;6.302;2024-02-21T00:58:06;55.95;;;11.32;;
22201;SDS011;11266;51.522;6.302;2024-02-21T00:58:51;33.35;;;11.77;;
22201;SDS011;11266;51.522;6.302;2024-02-21T00:59:37;42.33;;;10.20;;
22201;SDS011;11266;51.522;6.302;2024-02-21T01:00:23;31.00;;;9.82;;
22201;SDS011;11266;51.522;6.302;2024-02-21T01:01:08;34.53;;;10.13;;
22201;SDS011;11266;51.522;6.302;2024-02-21T01:01:54;30.35;;;9.93;;
22201;SDS011;11266;51.522;6.302;2024-02-21T01:02:39;33.30;;;10.57;;
22201;SDS011;11266;51.522;6.302;2024-02-21T01:03:25;34.78;;;10.25;;
22201;SDS011;11266;51.522;6.302;2024-02-21T01:04:11;46.60;;;11.00;;
22201;SDS011;11266;51.522;6.302;2024-02-21T01:04:57;26.00;;;10.75;;
22201;SDS011;11266;51.522;6.302;2024-02-21T01:05:43;25.92;;;9.85;;
22201;SDS011;11266;51.522;6.302;2024-02-21T01:06:28;24.30;;;9.55;;
22201;SDS011;11266;51.522;6.302;2024-02-21T01:07:14;29.30;;;10.02;;
22201;SDS011;11266;51.522;6.302;2024-02-21T01:07:59;36.10;;;10.00;;
22201;SDS011;11266;51.522;6.302;2024-02-21T01:08:48;34.70;;;10.77;;
22201;SDS011;11266;51.522;6.302;2024-02-21T01:09:33;44.00;;;10.82;;
22201;SDS011;11266;51.522;6.302;2024-02-21T01:10:19;35.13;;;10.90;;
22201;SDS011;11266;51.522;6.302;2024-02-21T01:11:04;51.10;;;11.70;;
22201;SDS011;11266;51.522;6.302;2024-02-21T01:11:50;39.58;;;11.15;;
22201;SDS011;11266;51.522;6.302;2024-02-21T01:12:36;29.70;;;10.38;;
22201;SDS011;11266;51.522;6.302;2024-02-21T01:13:21;25.95;;;9.30;;
22201;SDS011;11266;51.522;6.302;2024-02-21T01:14:07;37.20;;;11.88;;
22201;SDS011;11266;51.522;6.302;2024-02-21T01:14:53;46.35;;;12.00;;
22201;SDS011;11266;51.522;6.302;2024-02-21T01:15:38;28.40;;;10.25;;
22201;SDS011;11266;51.522;6.302;2024-02-21T01:16:24;25.85;;;9.95;;
22201;SDS011;11266;51.522;6.302;2024-02-21T01:17:10;34.25;;;9.63;;
22201;SDS011;11266;51.522;6.302;2024-02-21T01:17:56;33.28;;;10.65;;
22201;SDS011;11266;51.522;6.302;2024-02-21T01:18:41;36.67;;;9.82;;
22201;SDS011;11266;51.522;6.302;2024-02-21T01:19:27;37.75;;;10.43;;
22201;SDS011;11266;51.522;6.302;2024-02-21T01:20:13;28.92;;;10.60;;
22201;SDS011;11266;51.522;6.302;2024-02-21T01:20:58;26.60;;;10.73;;
22201;SDS011;11266;51.522;6.302;2024-02-21T01:21:44;35.55;;;11.20;;
22201;SDS011;11266;51.522;6.302;2024-02-21T01:22:29;29.08;;;9.13;;
22201;SDS011;11266;51.522;6.302;2024-02-21T01:23:15;25.70;;;9.90;;
22201;SDS011;11266;51.522;6.302;2024-02-21T01:24:01;27.27;;;9.35;;
22201;SDS011;11266;51.522;6.302;2024-02-21T01:24:46;23.88;;;9.77;;
22201;SDS011;11266;51.522;6.302;2024-02-21T01:25:32;41.20;;;11.68;;
22201;SDS011;11266;51.522;6.302;2024-02-21T01:26:17;33.55;;;10.07;;
22201;SDS011;11266;51.522;6.302;2024-02-21T01:27:03;33.35;;;10.00;;
22201;SDS011;11266;51.522;6.302;2024-02-21T01:27:49;37.85;;;10.60;;
22201;SDS011;11266;51.522;6.302;2024-02-21T01:28:34;24.80;;;8.77;;
22201;SDS011;11266;51.522;6.302;2024-02-21T01:29:20;24.65;;;9.75;;
22201;SDS011;11266;51.522;6.302;2024-02-21T01:30:06;23.75;;;9.73;;
22201;SDS011;11266;51.522;6.302;2024-02-21T01:30:52;36.47;;;10.52;;
22201;SDS011;11266;51.522;6.302;2024-02-21T01:31:38;34.72;;;10.20;;
22201;SDS011;11266;51.522;6.302;2024-02-21T01:32:23;25.30;;;10.68;;
22201;SDS011;11266;51.522;6.302;2024-02-21T01:33:09;32.15;;;9.93;;
22201;SDS011;11266;51.522;6.302;2024-02-21T01:33:55;29.77;;;9.73;;
22201;SDS011;11266;51.522;6.302;2024-02-21T01:34:40;29.63;;;9.77;;
22201;SDS011;11266;51.522;6.302;2024-02-21T01:35:26;40.75;;;11.68;;
22201;SDS011;11266;51.522;6.302;2024-02-21T01:36:12;25.23;;;9.57;;
22201;SDS011;11266;51.522;6.302;2024-02-21T01:36:57;25.83;;;10.23;;
22201;SDS011;11266;51.522;6.302;2024-02-21T01:37:44;29.50;;;10.65;;
22201;SDS011;11266;51.522;6.302;2024-02-21T01:38:29;44.00;;;10.98;;
22201;SDS011;11266;51.522;6.302;2024-02-21T01:39:16;26.30;;;9.00;;
22201;SDS011;11266;51.522;6.302;2024-02-21T01:40:02;31.30;;;9.45;;
22201;SDS011;11266;51.522;6.302;2024-02-21T01:40:48;43.30;;;10.40;;
22201;SDS011;11266;51.522;6.302;2024-02-21T01:41:34;50.00;;;10.63;;
22201;SDS011;11266;51.522;6.302;2024-02-21T01:42:19;55.45;;;11.00;;
22201;SDS011;11266;51.522;6.302;2024-02-21T01:43:14;29.38;;;9.23;;
22201;SDS011;11266;51.522;6.302;2024-02-21T01:44:01;22.40;;;9.20;;
22201;SDS011;11266;51.522;6.302;2024-02-21T01:44:47;22.38;;;9.60;;
22201;SDS011;11266;51.522;6.302;2024-02-21T01:45:32;24.80;;;9.27;;
22201;SDS011;11266;51.522;6.302;2024-02-21T01:46:18;37.00;;;9.18;;
22201;SDS011;11266;51.522;6.302;2024-02-21T01:47:04;35.50;;;10.48;;
22201;SDS011;11266;51.522;6.302;2024-02-21T01:47:50;25.92;;;9.07;;
22201;SDS011;11266;51.522;6.302;2024-02-21T01:48:36;52.70;;;10.65;;
22201;SDS011;11266;51.522;6.302;2024-02-21T01:49:21;41.45;;;11.93;;
22201;SDS011;11266;51.522;6.302;2024-02-21T01:50:07;29.30;;;9.77;;
22201;SDS011;11266;51.522;6.302;2024-02-21T01:50:54;36.78;;;9.80;;
22201;SDS011;11266;51.522;6.302;2024-02-21T01:51:40;31.17;;;10.35;;
22201;SDS011;11266;51.522;6.302;2024-02-21T01:52:26;22.60;;;8.82;;
22201;SDS011;11266;51.522;6.302;2024-02-21T01:53:12;23.88;;;8.93;;
22201;SDS011;11266;51.522;6.302;2024-02-21T01:54:03;23.58;;;9.48;;
22201;SDS011;11266;51.522;6.302;2024-02-21T01:54:49;44.65;;;10.60;;
22201;SDS011;11266;51.522;6.302;2024-02-21T01:55:35;32.03;;;10.57;;
22201;SDS011;11266;51.522;6.302;2024-02-21T01:56:21;24.88;;;10.07;;
22201;SDS011;11266;51.522;6.302;2024-02-21T01:57:07;24.38;;;9.77;;
22201;SDS011;11266;51.522;6.302;2024-02-21T01:57:52;21.27;;;9.15;;
22201;SDS011;11266;51.522;6.302;2024-02-21T01:58:39;29.85;;;8.93;;
22201;SDS011;11266;51.522;6.302;2024-02-21T01:59:27;30.02;;;9.13;;
22201;SDS011;11266;51.522;6.302;2024-02-21T02:00:13;31.42;;;9.25;;
22201;SDS011;11266;51.522;6.302;2024-02-21T02:01:03;33.25;;;9.27;;
22201;SDS011;11266;51.522;6.302;2024-02-21T02:01:49;22.58;;;8.35;;
22201;SDS011;11266;51.522;6.302;2024-02-21T02:02:36;24.90;;;10.43;;
22201;SDS011;11266;51.522;6.302;2024-02-21T02:03:23;41.35;;;11.43;;
22201;SDS011;11266;51.522;6.302;2024-02-21T02:04:10;66.05;;;11.35;;
22201;SDS011;11266;51.522;6.302;2024-02-21T02:04:57;32.33;;;9.57;;
22201;SDS011;11266;51.522;6.302;2024-02-21T02:05:44;27.30;;;9.75;;
22201;SDS011;11266;51.522;6.302;2024-02-21T02:06:31;24.55;;;9.18;;
22201;SDS011;11266;51.522;6.302;2024-02-21T02:07:16;37.30;;;8.90;;
22201;SDS011;11266;51.522;6.302;2024-02-21T02:08:02;24.52;;;8.95;;
22201;SDS011;11266;51.522;6.302;2024-02-21T02:08:48;27.67;;;9.52;;
22201;SDS011;11266;51.522;6.302;2024-02-21T02:09:34;41.25;;;9.13;;
22201;SDS011;11266;51.522;6.302;2024-02-21T02:10:20;53.65;;;9.93;;
22201;SDS011;11266;51.522;6.302;2024-02-21T02:11:05;30.92;;;9.60;;
22201;SDS011;11266;51.522;6.302;2024-02-21T02:11:51;23.00;;;9.15;;
22201;SDS011;11266;51.522;6.302;2024-02-21T02:12:37;33.85;;;10.07;;
22201;SDS011;11266;51.522;6.302;2024-02-21T02:13:23;34.60;;;8.98;;
22201;SDS011;11266;51.522;6.302;2024-02-21T02:14:08;26.90;;;9.18;;
22201;SDS011;11266;51.522;6.302;2024-02-21T02:14:57;30.83;;;8.48;;
22201;SDS011;11266;51.522;6.302;2024-02-21T02:15:49;25.77;;;9.25;;
22201;SDS011;11266;51.522;6.302;2024-02-21T02:16:35;25.58;;;7.80;;
22201;SDS011;11266;51.522;6.302;2024-02-21T02:17:21;25.40;;;7.88;;
22201;SDS011;11266;51.522;6.302;2024-02-21T02:18:06;40.08;;;9.27;;
22201;SDS011;11266;51.522;6.302;2024-02-21T02:18:52;32.58;;;9.50;;
22201;SDS011;11266;51.522;6.302;2024-02-21T02:19:38;38.00;;;9.23;;
22201;SDS011;11266;51.522;6.302;2024-02-21T02:20:23;27.08;;;7.70;;
22201;SDS011;11266;51.522;6.302;2024-02-21T02:21:10;31.90;;;8.80;;
22201;SDS011;11266;51.522;6.302;2024-02-21T02:22:13;32.63;;;8.52;;
22201;SDS011;11266;51.522;6.302;2024-02-21T02:23:09;47.08;;;9.75;;
22201;SDS011;11266;51.522;6.302;2024-02-21T02:23:56;26.60;;;8.55;;
22201;SDS011;11266;51.522;6.302;2024-02-21T02:24:42;40.15;;;9.23;;
22201;SDS011;11266;51.522;6.302;2024-02-21T02:25:28;28.30;;;8.00;;
22201;SDS011;11266;51.522;6.302;2024-02-21T02:26:14;34.92;;;8.98;;
22201;SDS011;11266;51.522;6.302;2024-02-21T02:27:00;30.90;;;9.10;;
22201;SDS011;11266;51.522;6.302;2024-02-21T02:27:45;34.35;;;8.68;;
22201;SDS011;11266;51.522;6.302;2024-02-21T02:28:31;29.52;;;9.15;;
22201;SDS011;11266;51.522;6.302;2024-02-21T02:29:17;33.53;;;8.50;;
22201;SDS011;11266;51.522;6.302;2024-02-21T02:30:02;28.30;;;9.00;;
22201;SDS011;11266;51.522;6.302;2024-02-21T02:30:48;23.42;;;7.85;;
22201;SDS011;11266;51.522;6.302;2024-02-21T02:31:34;26.75;;;8.35;;
22201;SDS011;11266;51.522;6.302;2024-02-21T02:32:20;46.25;;;11.43;;
22201;SDS011;11266;51.522;6.302;2024-02-21T02:33:05;35.53;;;8.75;;
22201;SDS011;11266;51.522;6.302;2024-02-21T02:33:51;47.92;;;9.98;;
22201;SDS011;11266;51.522;6.302;2024-02-21T02:34:37;23.85;;;8.60;;
22201;SDS011;11266;51.522;6.302;2024-02-21T02:35:22;36.10;;;9.43;;
22201;SDS011;11266;51.522;6.302;2024-02-21T02:36:08;40.42;;;9.68;;
22201;SDS011;11266;51.522;6.302;2024-02-21T02:36:54;19.13;;;7.43;;
22201;SDS011;11266;51.522;6.302;2024-02-21T02:37:39;20.88;;;7.38;;
22201;SDS011;11266;51.522;6.302;2024-02-21T02:38:25;31.00;;;9.13;;
22201;SDS011;11266;51.522;6.302;2024-02-21T02:39:10;28.35;;;8.07;;
22201;SDS011;11266;51.522;6.302;2024-02-21T02:39:56;25.30;;;8.65;;
22201;SDS011;11266;51.522;6.302;2024-02-21T02:40:42;33.47;;;8.60;;
22201;SDS011;11266;51.522;6.302;2024-02-21T02:41:27;23.30;;;8.25;;
22201;SDS011;11266;51.522;6.302;2024-02-21T02:42:13;43.30;;;9.50;;
22201;SDS011;11266;51.522;6.302;2024-02-21T02:42:58;22.17;;;8.00;;
22201;SDS011;11266;51.522;6.302;2024-02-21T02:43:44;30.73;;;8.73;;
22201;SDS011;11266;51.522;6.302;2024-02-21T02:44:30;25.23;;;8.07;;
22201;SDS011;11266;51.522;6.302;2024-02-21T02:45:16;24.98;;;8.05;;
22201;SDS011;11266;51.522;6.302;2024-02-21T02:46:02;25.05;;;9.10;;
22201;SDS011;11266;51.522;6.302;2024-02-21T02:46:48;23.15;;;7.90;;
22201;SDS011;11266;51.522;6.302;2024-02-21T02:47:34;28.30;;;9.50;;
22201;SDS011;11266;51.522;6.302;2024-02-21T02:48:19;33.63;;;9.45;;
22201;SDS011;11266;51.522;6.302;2024-02-21T02:49:05;67.28;;;10.80;;
22201;SDS011;11266;51.522;6.302;2024-02-21T02:49:50;38.88;;;9.10;;
22201;SDS011;11266;51.522;6.302;2024-02-21T02:50:36;31.15;;;8.57;;
22201;SDS011;11266;51.522;6.302;2024-02-21T02:51:22;22.33;;;7.80;;
22201;SDS011;11266;51.522;6.302;2024-02-21T02:52:07;32.78;;;7.80;;
22201;SDS011;11266;51.522;6.302;2024-02-21T02:52:53;26.08;;;8.40;;
22201;SDS011;11266;51.522;6.302;2024-02-21T02:53:39;17.67;;;7.30;;
22201;SDS011;11266;51.522;6.302;2024-02-21T02:54:25;24.23;;;7.82;;
22201;SDS011;11266;51.522;6.302;2024-02-21T02:55:10;22.20;;;7.85;;
22201;SDS011;11266;51.522;6.302;2024-02-21T02:55:56;37.83;;;9.02;;
22201;SDS011;11266;51.522;6.302;2024-02-21T02:56:41;24.42;;;8.02;;
22201;SDS011;11266;51.522;6.302;2024-02-21T02:57:28;34.83;;;8.30;;
22201;SDS011;11266;51.522;6.302;2024-02-21T02:58:14;22.75;;;8.63;;
22201;SDS011;11266;51.522;6.302;2024-02-21T02:58:59;18.05;;;7.60;;
22201;SDS011;11266;51.522;6.302;2024-02-21T02:59:48;26.77;;;8.85;;
22201;SDS011;11266;51.522;6.302;2024-02-21T03:00:34;27.17;;;8.15;;
22201;SDS011;11266;51.522;6.302;2024-02-21T03:01:21;46.72;;;8.80;;
22201;SDS011;11266;51.522;6.302;2024-02-21T03:02:06;23.25;;;7.75;;
22201;SDS011;11266;51.522;6.302;2024-02-21T03:02:52;22.23;;;8.40;;
22201;SDS011;11266;51.522;6.302;2024-02-21T03:03:38;40.50;;;9.43;;
22201;SDS011;11266;51.522;6.302;2024-02-21T03:04:23;24.83;;;8.30;;
22201;SDS011;11266;51.522;6.302;2024-02-21T03:05:12;20.35;;;8.18;;
22201;SDS011;11266;51.522;6.302;2024-02-21T03:06:00;34.28;;;7.32;;
22201;SDS011;11266;51.522;6.302;2024-02-21T03:06:46;19.08;;;7.35;;
22201;SDS011;11266;51.522;6.302;2024-02-21T03:07:31;31.77;;;8.48;;
22201;SDS011;11266;51.522;6.302;2024-02-21T03:08:17;26.63;;;8.57;;
22201;SDS011;11266;51.522;6.302;2024-02-21T03:09:02;22.00;;;6.88;;
22201;SDS011;11266;51.522;6.302;2024-02-21T03:09:53;18.30;;;6.65;;
22201;SDS011;11266;51.522;6.302;2024-02-21T03:10:39;20.92;;;8.43;;
22201;SDS011;11266;51.522;6.302;2024-02-21T03:11:27;28.05;;;7.80;;
22201;SDS011;11266;51.522;6.302;2024-02-21T03:12:13;28.85;;;8.85;;
22201;SDS011;11266;51.522;6.302;2024-02-21T03:13:04;39.38;;;8.80;;
22201;SDS011;11266;51.522;6.302;2024-02-21T03:13:49;21.77;;;8.48;;
22201;SDS011;11266;51.522;6.302;2024-02-21T03:14:35;26.67;;;8.02;;
22201;SDS011;11266;51.522;6.302;2024-02-21T03:15:21;21.73;;;8.18;;
22201;SDS011;11266;51.522;6.302;2024-02-21T03:16:07;24.95;;;8.95;;
22201;SDS011;11266;51.522;6.302;2024-02-21T03:16:52;40.75;;;8.05;;
22201;SDS011;11266;51.522;6.302;2024-02-21T03:17:38;27.35;;;8.63;;
22201;SDS011;11266;51.522;6.302;2024-02-21T03:18:24;17.90;;;8.05;;
22201;SDS011;11266;51.522;6.302;2024-02-21T03:19:09;26.15;;;7.28;;
22201;SDS011;11266;51.522;6.302;2024-02-21T03:19:55;27.45;;;7.95;;
22201;SDS011;11266;51.522;6.302;2024-02-21T03:20:40;25.70;;;7.32;;
22201;SDS011;11266;51.522;6.302;2024-02-21T03:21:26;29.42;;;8.68;;
22201;SDS011;11266;51.522;6.302;2024-02-21T03:22:11;41.72;;;9.70;;
22201;SDS011;11266;51.522;6.302;2024-02-21T03:22:57;24.60;;;8.23;;
22201;SDS011;11266;51.522;6.302;2024-02-21T03:23:42;20.10;;;7.55;;
22201;SDS011;11266;51.522;6.302;2024-02-21T03:24:28;22.42;;;7.65;;
22201;SDS011;11266;51.522;6.302;2024-02-21T03:25:16;16.80;;;7.28;;
22201;SDS011;11266;51.522;6.302;2024-02-21T03:26:02;28.75;;;7.32;;
22201;SDS011;11266;51.522;6.302;2024-02-21T03:26:47;25.95;;;7.55;;
22201;SDS011;11266;51.522;6.302;2024-02-21T03:27:36;27.92;;;7.95;;
22201;SDS011;11266;51.522;6.302;2024-02-21T03:28:22;33.25;;;9.55;;
22201;SDS011;11266;51.522;6.302;2024-02-21T03:29:08;26.55;;;8.57;;
22201;SDS011;11266;51.522;6.302;2024-02-21T03:29:54;14.32;;;7.38;;
22201;SDS011;11266;51.522;6.302;2024-02-21T03:30:40;35.65;;;8.27;;
22201;SDS011;11266;51.522;6.302;2024-02-21T03:31:25;21.45;;;7.60;;
22201;SDS011;11266;51.522;6.302;2024-02-21T03:32:11;20.58;;;7.65;;
22201;SDS011;11266;51.522;6.302;2024-02-21T03:32:56;28.38;;;8.02;;
22201;SDS011;11266;51.522;6.302;2024-02-21T03:33:42;20.30;;;7.80;;
22201;SDS011;11266;51.522;6.302;2024-02-21T03:34:28;17.23;;;6.82;;
22201;SDS011;11266;51.522;6.302;2024-02-21T03:35:14;25.77;;;7.78;;
22201;SDS011;11266;51.522;6.302;2024-02-21T03:35:59;39.28;;;9.05;;
22201;SDS011;11266;51.522;6.302;2024-02-21T03:36:45;27.38;;;8.95;;
22201;SDS011;11266;51.522;6.302;2024-02-21T03:37:30;20.48;;;6.47;;
22201;SDS011;11266;51.522;6.302;2024-02-21T03:38:16;31.75;;;7.28;;
22201;SDS011;11266;51.522;6.302;2024-02-21T03:39:01;19.38;;;7.22;;
22201;SDS011;11266;51.522;6.302;2024-02-21T03:39:47;30.65;;;7.32;;
22201;SDS011;11266;51.522;6.302;2024-02-21T03:40:33;21.40;;;7.57;;
22201;SDS011;11266;51.522;6.302;2024-02-21T03:41:18;42.78;;;9.13;;
22201;SDS011;11266;51.522;6.302;2024-02-21T03:42:04;31.42;;;8.02;;
22201;SDS011;11266;51.522;6.302;2024-02-21T03:42:49;20.98;;;7.95;;
22201;SDS011;11266;51.522;6.302;2024-02-21T03:43:37;26.52;;;8.18;;
22201;SDS011;11266;51.522;6.302;2024-02-21T03:44:23;20.58;;;6.72;;
22201;SDS011;11266;51.522;6.302;2024-02-21T03:45:08;24.67;;;8.85;;
22201;SDS011;11266;51.522;6.302;2024-02-21T03:45:54;26.05;;;7.50;;
22201;SDS011;11266;51.522;6.302;2024-02-21T03:46:40;16.95;;;7.05;;
22201;SDS011;11266;51.522;6.302;2024-02-21T03:47:26;29.33;;;7.00;;
22201;SDS011;11266;51.522;6.302;2024-02-21T03:48:11;22.65;;;7.88;;
22201;SDS011;11266;51.522;6.302;2024-02-21T03:48:57;31.88;;;7.38;;
22201;SDS011;11266;51.522;6.302;2024-02-21T03:49:42;13.63;;;6.85;;
22201;SDS011;11266;51.522;6.302;2024-02-21T03:50:28;15.13;;;6.70;;
22201;SDS011;11266;51.522;6.302;2024-02-21T03:51:14;28.42;;;7.70;;
22201;SDS011;11266;51.522;6.302;2024-02-21T03:52:00;17.13;;;7.10;;
22201;SDS011;11266;51.522;6.302;2024-02-21T03:52:45;17.05;;;7.18;;
22201;SDS011;11266;51.522;6.302;2024-02-21T03:53:31;16.25;;;6.95;;
22201;SDS011;11266;51.522;6.302;2024-02-21T03:54:17;25.08;;;7.80;;
22201;SDS011;11266;51.522;6.302;2024-02-21T03:55:02;32.20;;;8.90;;
22201;SDS011;11266;51.522;6.302;2024-02-21T03:55:48;19.17;;;7.47;;
22201;SDS011;11266;51.522;6.302;2024-02-21T03:56:37;30.55;;;7.53;;
22201;SDS011;11266;51.522;6.302;2024-02-21T03:57:24;30.30;;;8.15;;
22201;SDS011;11266;51.522;6.302;2024-02-21T03:58:10;18.33;;;7.18;;
22201;SDS011;11266;51.522;6.302;2024-02-21T03:58:56;34.95;;;8.95;;
22201;SDS011;11266;51.522;6.302;2024-02-21T03:59:43;23.35;;;8.73;;
22201;SDS011;11266;51.522;6.302;2024-02-21T04:00:28;21.40;;;8.52;;
22201;SDS011;11266;51.522;6.302;2024-02-21T04:01:15;41.08;;;8.27;;
22201;SDS011;11266;51.522;6.302;2024-02-21T04:02:01;25.05;;;8.35;;
22201;SDS011;11266;51.522;6.302;2024-02-21T04:02:48;19.40;;;6.82;;
22201;SDS011;11266;51.522;6.302;2024-02-21T04:03:34;22.58;;;7.40;;
22201;SDS011;11266;51.522;6.302;2024-02-21T04:04:20;18.58;;;8.02;;
22201;SDS011;11266;51.522;6.302;2024-02-21T04:05:05;27.98;;;8.02;;
22201;SDS011;11266;51.522;6.302;2024-02-21T04:05:55;23.42;;;8.15;;
22201;SDS011;11266;51.522;6.302;2024-02-21T04:06:47;23.08;;;7.72;;
22201;SDS011;11266;51.522;6.302;2024-02-21T04:07:34;29.92;;;8.13;;
22201;SDS011;11266;51.522;6.302;2024-02-21T04:08:19;22.70;;;8.50;;
22201;SDS011;11266;51.522;6.302;2024-02-21T04:09:05;21.98;;;7.20;;
22201;SDS011;11266;51.522;6.302;2024-02-21T04:09:50;47.03;;;10.10;;
22201;SDS011;11266;51.522;6.302;2024-02-21T04:10:36;51.83;;;9.30;;
22201;SDS011;11266;51.522;6.302;2024-02-21T04:11:22;21.00;;;7.30;;
22201;SDS011;11266;51.522;6.302;2024-02-21T04:12:07;44.10;;;8.57;;
22201;SDS011;11266;51.522;6.302;2024-02-21T04:12:53;33.53;;;7.85;;
22201;SDS011;11266;51.522;6.302;2024-02-21T04:13:39;28.13;;;7.38;;
22201;SDS011;11266;51.522;6.302;2024-02-21T04:14:24;30.58;;;7.40;;
22201;SDS011;11266;51.522;6.302;2024-02-21T04:15:10;37.90;;;8.60;;
22201;SDS011;11266;51.522;6.302;2024-02-21T04:15:55;27.45;;;8.70;;
22201;SDS011;11266;51.522;6.302;2024-02-21T04:16:42;41.95;;;9.07;;
22201;SDS011;11266;51.522;6.302;2024-02-21T04:17:28;31.38;;;8.48;;
22201;SDS011;11266;51.522;6.302;2024-02-21T04:18:13;31.00;;;8.65;;
22201;SDS011;11266;51.522;6.302;2024-02-21T04:19:00;16.27;;;6.90;;
22201;SDS011;11266;51.522;6.302;2024-02-21T04:19:47;22.33;;;7.43;;
22201;SDS011;11266;51.522;6.302;2024-02-21T04:20:33;33.85;;;8.93;;
22201;SDS011;11266;51.522;6.302;2024-02-21T04:21:19;24.20;;;8.05;;
22201;SDS011;11266;51.522;6.302;2024-02-21T04:22:04;25.85;;;7.90;;
22201;SDS011;11266;51.522;6.302;2024-02-21T04:22:50;19.00;;;6.75;;
22201;SDS011;11266;51.522;6.302;2024-02-21T04:23:35;21.35;;;6.80;;
22201;SDS011;11266;51.522;6.302;2024-02-21T04:24:21;25.30;;;7.10;;
22201;SDS011;11266;51.522;6.302;2024-02-21T04:25:07;18.25;;;6.57;;
22201;SDS011;11266;51.522;6.302;2024-02-21T04:25:52;20.05;;;7.20;;
22201;SDS011;11266;51.522;6.302;2024-02-21T04:26:38;21.40;;;7.47;;
22201;SDS011;11266;51.522;6.302;2024-02-21T04:27:24;36.33;;;8.15;;
22201;SDS011;11266;51.522;6.302;2024-02-21T04:28:10;21.50;;;7.00;;
22201;SDS011;11266;51.522;6.302;2024-02-21T04:28:55;18.52;;;6.57;;
22201;SDS011;11266;51.522;6.302;2024-02-21T04:29:41;40.13;;;8.32;;
22201;SDS011;11266;51.522;6.302;2024-02-21T04:30:26;18.13;;;7.70;;
22201;SDS011;11266;51.522;6.302;2024-02-21T04:31:12;25.55;;;7.28;;
22201;SDS011;11266;51.522;6.302;2024-02-21T04:31:57;27.60;;;7.82;;